^^
Saratoga-Weather Station Historical Data
Daily Summary for May 6, 2020 Units:  Both    English   Metric
Daily Weekly Monthly Yearly Custom
  High: Low: Average:
Temperature: 59.5 °F /  15.3 °C 49.5 °F /  9.7 °C 52.9 °F /  11.6 °C
Dew Point: 52 °F /  11.1 °C 47.3 °F /  8.5 °C 49.5 °F /  9.7 °C
Humidity: 95% 66% 88%
Wind Speed: 12.1mph /  19.5km/h - 2.6mph /  4.2km/h
Wind Gust: 19mph /  30.6km/h - -
Wind- - WSW
Pressure: 29.6 in /  1003.4 hPa 29.5 in /  999.7 hPa -
Precipitation: 0.14 in /  3.6 mm    
Historical Graphs
 
 
Tabular Data for May 6, 2020
Time Temperature Dew Point Pressure Wind Wind Speed Wind Gust Humidity Rainfall Rate (Hourly) solar
00:04 49.6 °F /  9.8 °C 48 °F /  8.9 °C 29.5in /  1000.3hPa Calm     94% 0in /  0.0mm 0 W/m2
00:09 49.6 °F /  9.8 °C 48 °F /  8.9 °C 29.5in /  1000.0hPa SE 0.9mph /  1.4km/h 2mph /  3.2km/h 94% 0in /  0.0mm 0 W/m2
00:14 49.5 °F /  9.7 °C 47.8 °F /  8.8 °C 29.5in /  1000.0hPa Calm     94% 0in /  0.0mm 0 W/m2
00:19 49.5 °F /  9.7 °C 47.8 °F /  8.8 °C 29.5in /  1000.0hPa Calm     94% 0in /  0.0mm 0 W/m2
00:24 49.5 °F /  9.7 °C 48 °F /  8.9 °C 29.5in /  1000.0hPa SE 0.9mph /  1.4km/h 1mph /  1.6km/h 95% 0in /  0.0mm 0 W/m2
00:29 49.6 °F /  9.8 °C 48.2 °F /  9 °C 29.5in /  1000.0hPa Calm   1mph /  1.6km/h 95% 0in /  0.0mm 0 W/m2
00:34 49.8 °F /  9.9 °C 48.4 °F /  9.1 °C 29.5in /  1000.0hPa ESE 0.9mph /  1.4km/h 1mph /  1.6km/h 95% 0in /  0.0mm 0 W/m2
00:39 50 °F /  10 °C 48.6 °F /  9.2 °C 29.5in /  1000.0hPa Calm     95% 0in /  0.0mm 0 W/m2
00:44 50.4 °F /  10.2 °C 48.9 °F /  9.4 °C 29.5in /  1000.3hPa NE 0.9mph /  1.4km/h 2mph /  3.2km/h 95% 0in /  0.0mm 0 W/m2
00:49 50.5 °F /  10.3 °C 49.1 °F /  9.5 °C 29.5in /  1000.3hPa East 0.9mph /  1.4km/h 3mph /  4.8km/h 95% 0in /  0.0mm 0 W/m2
00:54 50.7 °F /  10.4 °C 49.3 °F /  9.6 °C 29.5in /  1000.0hPa Calm   1mph /  1.6km/h 95% 0in /  0.0mm 0 W/m2
00:59 51.1 °F /  10.6 °C 49.6 °F /  9.8 °C 29.5in /  1000.0hPa Calm   3mph /  4.8km/h 95% 0in /  0.0mm 0 W/m2
01:05 51.1 °F /  10.6 °C 49.6 °F /  9.8 °C 29.5in /  1000.0hPa East 0.9mph /  1.4km/h 2mph /  3.2km/h 95% 0in /  0.0mm 0 W/m2
01:10 51.3 °F /  10.7 °C 49.6 °F /  9.8 °C 29.5in /  1000.0hPa ENE 0.9mph /  1.4km/h 3mph /  4.8km/h 94% 0in /  0.0mm 0 W/m2
01:15 51.4 °F /  10.8 °C 49.8 °F /  9.9 °C 29.5in /  1000.3hPa WNW 0.9mph /  1.4km/h 4mph /  6.4km/h 94% 0in /  0.0mm 0 W/m2
01:20 51.4 °F /  10.8 °C 49.8 °F /  9.9 °C 29.5in /  1000.3hPa NNW 2mph /  3.2km/h 3mph /  4.8km/h 94% 0in /  0.0mm 0 W/m2
01:25 51.6 °F /  10.9 °C 50 °F /  10 °C 29.5in /  1000.0hPa NW 0.9mph /  1.4km/h 6mph /  9.7km/h 94% 0in /  0.0mm 0 W/m2
01:30 51.8 °F /  11 °C 49.8 °F /  9.9 °C 29.5in /  1000.0hPa Calm   2mph /  3.2km/h 93% 0in /  0.0mm 0 W/m2
01:35 51.8 °F /  11 °C 49.8 °F /  9.9 °C 29.5in /  1000.0hPa Calm   6mph /  9.7km/h 93% 0.01in /  0.2mm 0 W/m2
01:40 51.8 °F /  11 °C 49.8 °F /  9.9 °C 29.5in /  1000.0hPa Calm   4mph /  6.4km/h 93% 0.01in /  0.2mm 0 W/m2
01:45 51.8 °F /  11 °C 49.8 °F /  9.9 °C 29.5in /  1000.0hPa WNW 0.9mph /  1.4km/h 6mph /  9.7km/h 93% 0.01in /  0.2mm 0 W/m2
01:50 51.8 °F /  11 °C 49.8 °F /  9.9 °C 29.5in /  999.7hPa WSW 0.9mph /  1.4km/h 3mph /  4.8km/h 93% 0.02in /  0.5mm 0 W/m2
01:55 51.8 °F /  11 °C 49.8 °F /  9.9 °C 29.5in /  1000.0hPa NNW 2mph /  3.2km/h 5mph /  8km/h 93% 0.02in /  0.5mm 0 W/m2
02:00 51.6 °F /  10.9 °C 49.6 °F /  9.8 °C 29.5in /  1000.0hPa WNW 2mph /  3.2km/h 2mph /  3.2km/h 93% 0.02in /  0.5mm 0 W/m2
02:05 51.6 °F /  10.9 °C 49.6 °F /  9.8 °C 29.5in /  1000.3hPa North 0.9mph /  1.4km/h 4mph /  6.4km/h 93% 0.02in /  0.5mm 0 W/m2
02:10 51.6 °F /  10.9 °C 49.6 °F /  9.8 °C 29.5in /  1000.3hPa Calm   9mph /  14.5km/h 93% 0.02in /  0.5mm 0 W/m2
02:15 51.6 °F /  10.9 °C 49.6 °F /  9.8 °C 29.5in /  1000.3hPa Calm   1mph /  1.6km/h 93% 0.02in /  0.5mm 0 W/m2
02:20 51.6 °F /  10.9 °C 49.6 °F /  9.8 °C 29.5in /  1000.3hPa North 4mph /  6.4km/h 6mph /  9.7km/h 93% 0.02in /  0.5mm 0 W/m2
02:25 51.6 °F /  10.9 °C 49.6 °F /  9.8 °C 29.5in /  1000.3hPa Calm   3mph /  4.8km/h 93% 0.02in /  0.5mm 0 W/m2
02:30 51.6 °F /  10.9 °C 49.6 °F /  9.8 °C 29.5in /  1000.3hPa SSE 0.9mph /  1.4km/h 2mph /  3.2km/h 93% 0.03in /  0.8mm 0 W/m2
02:35 51.4 °F /  10.8 °C 49.5 °F /  9.7 °C 29.5in /  1000.3hPa WNW 4mph /  6.4km/h 4mph /  6.4km/h 93% 0.02in /  0.5mm 0 W/m2
02:40 51.4 °F /  10.8 °C 49.5 °F /  9.7 °C 29.5in /  1000.3hPa NW 2.9mph /  4.7km/h 3mph /  4.8km/h 93% 0.02in /  0.5mm 0 W/m2
02:45 51.6 °F /  10.9 °C 49.6 °F /  9.8 °C 29.5in /  1000.3hPa West 0.9mph /  1.4km/h 4mph /  6.4km/h 93% 0.02in /  0.5mm 0 W/m2
02:50 51.4 °F /  10.8 °C 49.5 °F /  9.7 °C 29.5in /  1000.3hPa West 2mph /  3.2km/h 7mph /  11.3km/h 93% 0.02in /  0.5mm 0 W/m2
02:56 51.4 °F /  10.8 °C 49.5 °F /  9.7 °C 29.5in /  1000.3hPa WNW 0.9mph /  1.4km/h 2mph /  3.2km/h 93% 0.02in /  0.5mm 0 W/m2
03:01 51.4 °F /  10.8 °C 49.5 °F /  9.7 °C 29.5in /  1000.3hPa WNW 2mph /  3.2km/h 4mph /  6.4km/h 93% 0.02in /  0.5mm 0 W/m2
03:06 51.4 °F /  10.8 °C 49.5 °F /  9.7 °C 29.5in /  1000.3hPa WNW 2.9mph /  4.7km/h 4mph /  6.4km/h 93% 0.02in /  0.5mm 0 W/m2
03:11 51.4 °F /  10.8 °C 49.5 °F /  9.7 °C 29.5in /  1000.0hPa NNW 0.9mph /  1.4km/h 4mph /  6.4km/h 93% 0.02in /  0.5mm 0 W/m2
03:16 51.4 °F /  10.8 °C 49.5 °F /  9.7 °C 29.5in /  1000.3hPa North 0.9mph /  1.4km/h 2mph /  3.2km/h 93% 0.02in /  0.5mm 0 W/m2
03:21 51.3 °F /  10.7 °C 49.3 °F /  9.6 °C 29.5in /  1000.3hPa NW 0.9mph /  1.4km/h 7mph /  11.3km/h 93% 0.02in /  0.5mm 0 W/m2
03:26 51.4 °F /  10.8 °C 49.5 °F /  9.7 °C 29.5in /  1000.3hPa WNW 0.9mph /  1.4km/h 3mph /  4.8km/h 93% 0.02in /  0.5mm 0 W/m2
03:31 51.4 °F /  10.8 °C 49.5 °F /  9.7 °C 29.5in /  1000.3hPa NW 0.9mph /  1.4km/h 3mph /  4.8km/h 93% 0.01in /  0.2mm 0 W/m2
03:36 51.3 °F /  10.7 °C 49.3 °F /  9.6 °C 29.5in /  1000.3hPa NNW 0.9mph /  1.4km/h 6mph /  9.7km/h 93% 0.01in /  0.2mm 0 W/m2
03:41 51.3 °F /  10.7 °C 49.3 °F /  9.6 °C 29.5in /  1000.3hPa SW 0.9mph /  1.4km/h 2mph /  3.2km/h 93% 0.01in /  0.2mm 0 W/m2
03:46 51.3 °F /  10.7 °C 49.3 °F /  9.6 °C 29.5in /  1000.3hPa WSW 2mph /  3.2km/h 4mph /  6.4km/h 93% 0.01in /  0.2mm 0 W/m2
03:51 51.3 °F /  10.7 °C 49.3 °F /  9.6 °C 29.5in /  1000.3hPa West 2.9mph /  4.7km/h 4mph /  6.4km/h 93% 0.01in /  0.2mm 0 W/m2
03:56 51.3 °F /  10.7 °C 49.3 °F /  9.6 °C 29.5in /  1000.3hPa West 2mph /  3.2km/h 3mph /  4.8km/h 93% 0in /  0.0mm 0 W/m2
04:01 51.3 °F /  10.7 °C 49.3 °F /  9.6 °C 29.5in /  1000.3hPa Calm   2mph /  3.2km/h 93% 0in /  0.0mm 0 W/m2
04:06 51.3 °F /  10.7 °C 49.3 °F /  9.6 °C 29.5in /  1000.3hPa North 2mph /  3.2km/h 5mph /  8km/h 93% 0in /  0.0mm 0 W/m2
04:11 51.1 °F /  10.6 °C 49.1 °F /  9.5 °C 29.5in /  1000.3hPa NW 2mph /  3.2km/h 6mph /  9.7km/h 93% 0in /  0.0mm 0 W/m2
04:16 51.1 °F /  10.6 °C 49.1 °F /  9.5 °C 29.5in /  1000.3hPa North 0.9mph /  1.4km/h 3mph /  4.8km/h 93% 0.01in /  0.2mm 0 W/m2
04:21 51.1 °F /  10.6 °C 49.1 °F /  9.5 °C 29.5in /  1000.3hPa NNE 0.9mph /  1.4km/h 2mph /  3.2km/h 93% 0.01in /  0.2mm 0 W/m2
04:26 51.1 °F /  10.6 °C 49.1 °F /  9.5 °C 29.5in /  1000.3hPa Calm   1mph /  1.6km/h 93% 0.01in /  0.2mm 0 W/m2
04:31 51.1 °F /  10.6 °C 49.1 °F /  9.5 °C 29.5in /  1000.3hPa West 0.9mph /  1.4km/h 1mph /  1.6km/h 93% 0.01in /  0.2mm 0 W/m2
04:36 50.9 °F /  10.5 °C 48.9 °F /  9.4 °C 29.5in /  1000.3hPa NE 0.9mph /  1.4km/h 3mph /  4.8km/h 93% 0.01in /  0.2mm 0 W/m2
04:41 50.9 °F /  10.5 °C 48.9 °F /  9.4 °C 29.5in /  1000.3hPa SE 0.9mph /  1.4km/h 5mph /  8km/h 93% 0.01in /  0.2mm 0 W/m2
04:46 50.9 °F /  10.5 °C 48.9 °F /  9.4 °C 29.5in /  1000.3hPa NNW 0.9mph /  1.4km/h 2mph /  3.2km/h 93% 0.01in /  0.2mm 0 W/m2
04:51 50.9 °F /  10.5 °C 48.9 °F /  9.4 °C 29.5in /  1000.3hPa NW 2mph /  3.2km/h 3mph /  4.8km/h 93% 0.01in /  0.2mm 0 W/m2
04:56 50.9 °F /  10.5 °C 48.9 °F /  9.4 °C 29.5in /  1000.3hPa North 0.9mph /  1.4km/h 4mph /  6.4km/h 93% 0.01in /  0.2mm 0 W/m2
05:01 50.9 °F /  10.5 °C 48.9 °F /  9.4 °C 29.6in /  1000.7hPa Calm     93% 0.01in /  0.2mm 0 W/m2
05:06 50.9 °F /  10.5 °C 48.9 °F /  9.4 °C 29.6in /  1000.7hPa NNW 2mph /  3.2km/h 2mph /  3.2km/h 93% 0.02in /  0.5mm 0 W/m2
05:11 50.9 °F /  10.5 °C 48.9 °F /  9.4 °C 29.6in /  1000.7hPa WNW 2mph /  3.2km/h 4mph /  6.4km/h 93% 0.02in /  0.5mm 0 W/m2
05:16 51.1 °F /  10.6 °C 49.1 °F /  9.5 °C 29.6in /  1000.7hPa WNW 0.9mph /  1.4km/h 3mph /  4.8km/h 93% 0.01in /  0.2mm 0 W/m2
05:21 50.9 °F /  10.5 °C 48.9 °F /  9.4 °C 29.5in /  1000.3hPa WNW 0.9mph /  1.4km/h 5mph /  8km/h 93% 0.01in /  0.2mm 0 W/m2
05:26 50.9 °F /  10.5 °C 48.9 °F /  9.4 °C 29.5in /  1000.3hPa WNW 0.9mph /  1.4km/h 1mph /  1.6km/h 93% 0.02in /  0.5mm 0 W/m2
05:31 50.7 °F /  10.4 °C 48.7 °F /  9.3 °C 29.5in /  1000.3hPa Calm   1mph /  1.6km/h 93% 0.02in /  0.5mm 0 W/m2
05:36 50.7 °F /  10.4 °C 48.7 °F /  9.3 °C 29.6in /  1000.7hPa Calm     93% 0.02in /  0.5mm 0 W/m2
05:41 50.7 °F /  10.4 °C 48.7 °F /  9.3 °C 29.6in /  1000.7hPa North 0.9mph /  1.4km/h 2mph /  3.2km/h 93% 0.02in /  0.5mm 0 W/m2
05:46 50.5 °F /  10.3 °C 48.6 °F /  9.2 °C 29.6in /  1000.7hPa Calm   2mph /  3.2km/h 93% 0.02in /  0.5mm 0 W/m2
05:51 50.5 °F /  10.3 °C 48.6 °F /  9.2 °C 29.6in /  1000.7hPa West 0.9mph /  1.4km/h 2mph /  3.2km/h 93% 0.03in /  0.8mm 0 W/m2
05:56 50.5 °F /  10.3 °C 48.6 °F /  9.2 °C 29.6in /  1000.7hPa Calm   1mph /  1.6km/h 93% 0.04in /  1.0mm 0 W/m2
06:01 50.5 °F /  10.3 °C 48.9 °F /  9.4 °C 29.6in /  1000.7hPa Calm   1mph /  1.6km/h 94% 0.04in /  1.0mm 7 W/m2
06:06 50.5 °F /  10.3 °C 48.9 °F /  9.4 °C 29.6in /  1000.7hPa NNE 0.9mph /  1.4km/h 3mph /  4.8km/h 94% 0.03in /  0.8mm 7 W/m2
06:11 50.5 °F /  10.3 °C 48.9 °F /  9.4 °C 29.6in /  1000.7hPa East 2.9mph /  4.7km/h 3mph /  4.8km/h 94% 0.03in /  0.8mm 25 W/m2
06:16 50.5 °F /  10.3 °C 48.6 °F /  9.2 °C 29.6in /  1000.7hPa WNW 2.9mph /  4.7km/h 4mph /  6.4km/h 93% 0.04in /  1.0mm 9 W/m2
06:21 50.5 °F /  10.3 °C 48.6 °F /  9.2 °C 29.6in /  1000.7hPa East 0.9mph /  1.4km/h 2mph /  3.2km/h 93% 0.04in /  1.0mm 12 W/m2
06:26 50.5 °F /  10.3 °C 48.6 °F /  9.2 °C 29.6in /  1000.7hPa Calm   5mph /  8km/h 93% 0.03in /  0.8mm 18 W/m2
06:31 50.5 °F /  10.3 °C 48.6 °F /  9.2 °C 29.6in /  1000.7hPa NW 2mph /  3.2km/h 3mph /  4.8km/h 93% 0.03in /  0.8mm 12 W/m2
06:36 50.5 °F /  10.3 °C 48.6 °F /  9.2 °C 29.6in /  1001.0hPa NE 0.9mph /  1.4km/h 3mph /  4.8km/h 93% 0.03in /  0.8mm 16 W/m2
06:41 50.5 °F /  10.3 °C 48.6 °F /  9.2 °C 29.6in /  1001.0hPa SW 2mph /  3.2km/h 5mph /  8km/h 93% 0.04in /  1.0mm 19 W/m2
06:46 50.5 °F /  10.3 °C 48.6 °F /  9.2 °C 29.6in /  1001.0hPa West 6mph /  9.7km/h 6mph /  9.7km/h 93% 0.04in /  1.0mm 30 W/m2
06:51 50.5 °F /  10.3 °C 48.6 °F /  9.2 °C 29.6in /  1001.0hPa NW 2mph /  3.2km/h 4mph /  6.4km/h 93% 0.02in /  0.5mm 26 W/m2
06:56 50.5 °F /  10.3 °C 48.6 °F /  9.2 °C 29.6in /  1001.0hPa Calm   6mph /  9.7km/h 93% 0.02in /  0.5mm 26 W/m2
07:01 50.5 °F /  10.3 °C 48.6 °F /  9.2 °C 29.6in /  1001.4hPa WNW 2mph /  3.2km/h 6mph /  9.7km/h 93% 0.02in /  0.5mm 47 W/m2
07:06 50.5 °F /  10.3 °C 48.6 °F /  9.2 °C 29.6in /  1001.4hPa SW 2mph /  3.2km/h 5mph /  8km/h 93% 0.02in /  0.5mm 37 W/m2
07:11 50.5 °F /  10.3 °C 48.6 °F /  9.2 °C 29.6in /  1001.0hPa North 0.9mph /  1.4km/h 4mph /  6.4km/h 93% 0.02in /  0.5mm 30 W/m2
07:16 50.5 °F /  10.3 °C 48.6 °F /  9.2 °C 29.6in /  1001.4hPa Calm   5mph /  8km/h 93% 0.01in /  0.2mm 40 W/m2
07:21 50.5 °F /  10.3 °C 48.6 °F /  9.2 °C 29.6in /  1001.4hPa NNW 0.9mph /  1.4km/h 2mph /  3.2km/h 93% 0.01in /  0.2mm 25 W/m2
07:26 50.5 °F /  10.3 °C 48.6 °F /  9.2 °C 29.6in /  1001.4hPa Calm   5mph /  8km/h 93% 0.01in /  0.2mm 63 W/m2
07:31 50.5 °F /  10.3 °C 48.6 °F /  9.2 °C 29.6in /  1001.4hPa NE 0.9mph /  1.4km/h 4mph /  6.4km/h 93% 0.01in /  0.2mm 47 W/m2
07:36 50.5 °F /  10.3 °C 48.6 °F /  9.2 °C 29.6in /  1001.4hPa NNW 2mph /  3.2km/h 2mph /  3.2km/h 93% 0.01in /  0.2mm 32 W/m2
07:41 50.7 °F /  10.4 °C 48.7 °F /  9.3 °C 29.6in /  1001.4hPa Calm   2mph /  3.2km/h 93% 0in /  0.0mm 32 W/m2
07:46 50.7 °F /  10.4 °C 48.7 °F /  9.3 °C 29.6in /  1001.4hPa Calm   3mph /  4.8km/h 93% 0in /  0.0mm 62 W/m2
07:52 50.7 °F /  10.4 °C 48.7 °F /  9.3 °C 29.6in /  1001.4hPa East 0.9mph /  1.4km/h 2mph /  3.2km/h 93% 0in /  0.0mm 79 W/m2
07:57 50.9 °F /  10.5 °C 48.9 °F /  9.4 °C 29.6in /  1001.4hPa NNE 0.9mph /  1.4km/h 1mph /  1.6km/h 93% 0in /  0.0mm 77 W/m2
08:02 51.1 °F /  10.6 °C 49.1 °F /  9.5 °C 29.6in /  1001.4hPa NW 2.9mph /  4.7km/h 4mph /  6.4km/h 93% 0in /  0.0mm 77 W/m2
08:07 51.1 °F /  10.6 °C 49.1 °F /  9.5 °C 29.6in /  1001.4hPa WNW 2.9mph /  4.7km/h 6mph /  9.7km/h 93% 0in /  0.0mm 139 W/m2
08:12 51.3 °F /  10.7 °C 49.3 °F /  9.6 °C 29.6in /  1001.4hPa Calm   3mph /  4.8km/h 93% 0in /  0.0mm 76 W/m2
08:17 51.4 °F /  10.8 °C 49.5 °F /  9.7 °C 29.6in /  1001.4hPa North 2.9mph /  4.7km/h 3mph /  4.8km/h 93% 0in /  0.0mm 104 W/m2
08:22 51.4 °F /  10.8 °C 49.3 °F /  9.6 °C 29.6in /  1001.4hPa NW 2mph /  3.2km/h 5mph /  8km/h 92% 0in /  0.0mm 104 W/m2
08:27 51.6 °F /  10.9 °C 49.5 °F /  9.7 °C 29.6in /  1001.4hPa NNW 2mph /  3.2km/h 2mph /  3.2km/h 92% 0in /  0.0mm 77 W/m2
08:32 51.6 °F /  10.9 °C 49.5 °F /  9.7 °C 29.6in /  1001.7hPa Calm   5mph /  8km/h 92% 0in /  0.0mm 195 W/m2
08:37 52 °F /  11.1 °C 49.6 °F /  9.8 °C 29.6in /  1001.7hPa NNW 2mph /  3.2km/h 4mph /  6.4km/h 92% 0in /  0.0mm 192 W/m2
08:42 52 °F /  11.1 °C 49.6 °F /  9.8 °C 29.6in /  1001.4hPa NE 2mph /  3.2km/h 7mph /  11.3km/h 92% 0in /  0.0mm 207 W/m2
08:47 52.3 °F /  11.3 °C 50 °F /  10 °C 29.6in /  1001.4hPa NNW 0.9mph /  1.4km/h 2mph /  3.2km/h 92% 0in /  0.0mm 188 W/m2
08:52 52.7 °F /  11.5 °C 50.4 °F /  10.2 °C 29.6in /  1001.4hPa NW 4mph /  6.4km/h 5mph /  8km/h 92% 0in /  0.0mm 225 W/m2
08:57 52.9 °F /  11.6 °C 50.4 °F /  10.2 °C 29.6in /  1001.4hPa North 4mph /  6.4km/h 4mph /  6.4km/h 91% 0in /  0.0mm 167 W/m2
09:02 53.1 °F /  11.7 °C 50.5 °F /  10.3 °C 29.6in /  1001.4hPa SSE 4mph /  6.4km/h 7mph /  11.3km/h 91% 0in /  0.0mm 236 W/m2
09:07 53.1 °F /  11.7 °C 50.5 °F /  10.3 °C 29.6in /  1001.7hPa North 2.9mph /  4.7km/h 4mph /  6.4km/h 91% 0in /  0.0mm 137 W/m2
09:12 53.1 °F /  11.7 °C 50.2 °F /  10.1 °C 29.6in /  1001.7hPa ESE 0.9mph /  1.4km/h 3mph /  4.8km/h 90% 0in /  0.0mm 185 W/m2
09:17 53.1 °F /  11.7 °C 50.2 °F /  10.1 °C 29.6in /  1001.7hPa NE 0.9mph /  1.4km/h 3mph /  4.8km/h 90% 0in /  0.0mm 185 W/m2
09:22 53.1 °F /  11.7 °C 50.2 °F /  10.1 °C 29.6in /  1001.7hPa NW 2mph /  3.2km/h 3mph /  4.8km/h 90% 0in /  0.0mm 125 W/m2
09:27 53.1 °F /  11.7 °C 50.2 °F /  10.1 °C 29.6in /  1001.7hPa East 2mph /  3.2km/h 4mph /  6.4km/h 90% 0in /  0.0mm 142 W/m2
09:32 53.2 °F /  11.8 °C 50.4 °F /  10.2 °C 29.6in /  1001.7hPa NNW 8.1mph /  13km/h 9mph /  14.5km/h 90% 0in /  0.0mm 250 W/m2
09:37 53.2 °F /  11.8 °C 50.4 °F /  10.2 °C 29.6in /  1001.7hPa WSW 4mph /  6.4km/h 5mph /  8km/h 90% 0in /  0.0mm 216 W/m2
09:42 53.8 °F /  12.1 °C 50.9 °F /  10.5 °C 29.6in /  1001.7hPa NNW 4mph /  6.4km/h 4mph /  6.4km/h 90% 0in /  0.0mm 267 W/m2
09:47 54 °F /  12.2 °C 50.7 °F /  10.4 °C 29.6in /  1001.7hPa NNE 2mph /  3.2km/h 3mph /  4.8km/h 89% 0in /  0.0mm 288 W/m2
09:53 54.3 °F /  12.4 °C 50.9 °F /  10.5 °C 29.6in /  1001.7hPa NW 2mph /  3.2km/h 3mph /  4.8km/h 88% 0in /  0.0mm 183 W/m2
09:58 54.3 °F /  12.4 °C 50.9 °F /  10.5 °C 29.6in /  1001.7hPa Calm   5mph /  8km/h 88% 0in /  0.0mm 218 W/m2
10:03 54.3 °F /  12.4 °C 50.9 °F /  10.5 °C 29.6in /  1001.7hPa NNW 2.9mph /  4.7km/h 3mph /  4.8km/h 88% 0in /  0.0mm 301 W/m2
10:08 54.3 °F /  12.4 °C 50.9 °F /  10.5 °C 29.6in /  1002.0hPa West 6.9mph /  11.1km/h 7mph /  11.3km/h 88% 0in /  0.0mm 211 W/m2
10:13 54.3 °F /  12.4 °C 50.5 °F /  10.3 °C 29.6in /  1001.7hPa SW 6mph /  9.7km/h 7mph /  11.3km/h 87% 0in /  0.0mm 223 W/m2
10:18 54.1 °F /  12.3 °C 50.7 °F /  10.4 °C 29.6in /  1001.7hPa WNW 0.9mph /  1.4km/h 7mph /  11.3km/h 88% 0in /  0.0mm 338 W/m2
10:23 54.1 °F /  12.3 °C 50.4 °F /  10.2 °C 29.6in /  1001.4hPa North 0.9mph /  1.4km/h 3mph /  4.8km/h 87% 0in /  0.0mm 251 W/m2
10:28 54.1 °F /  12.3 °C 50.4 °F /  10.2 °C 29.6in /  1001.7hPa West 12.1mph /  19.5km/h 12mph /  19.3km/h 87% 0in /  0.0mm 253 W/m2
10:33 54.5 °F /  12.5 °C 50.7 °F /  10.4 °C 29.6in /  1001.7hPa NW 0.9mph /  1.4km/h 4mph /  6.4km/h 87% 0in /  0.0mm 710 W/m2
10:38 55.2 °F /  12.9 °C 51.8 °F /  11 °C 29.6in /  1001.4hPa North 2mph /  3.2km/h 8mph /  12.9km/h 88% 0in /  0.0mm 898 W/m2
10:43 55.9 °F /  13.3 °C 51.8 °F /  11 °C 29.6in /  1001.7hPa NW 4mph /  6.4km/h 8mph /  12.9km/h 86% 0in /  0.0mm 965 W/m2
10:48 56.5 °F /  13.6 °C 52 °F /  11.1 °C 29.6in /  1001.7hPa WNW 4mph /  6.4km/h 11mph /  17.7km/h 85% 0in /  0.0mm 708 W/m2
10:54 56.5 °F /  13.6 °C 51.1 °F /  10.6 °C 29.6in /  1001.7hPa NNW 4mph /  6.4km/h 8mph /  12.9km/h 82% 0in /  0.0mm 292 W/m2
10:59 56.3 °F /  13.5 °C 51.3 °F /  10.7 °C 29.6in /  1001.7hPa WSW 0.9mph /  1.4km/h 4mph /  6.4km/h 83% 0in /  0.0mm 279 W/m2
11:04 56.5 °F /  13.6 °C 51.4 °F /  10.8 °C 29.6in /  1001.7hPa NNE 0.9mph /  1.4km/h 10mph /  16.1km/h 83% 0in /  0.0mm 343 W/m2
11:09 56.5 °F /  13.6 °C 50.7 °F /  10.4 °C 29.6in /  1001.7hPa WNW 4mph /  6.4km/h 9mph /  14.5km/h 81% 0in /  0.0mm 274 W/m2
11:14 56.7 °F /  13.7 °C 50.5 °F /  10.3 °C 29.6in /  1001.4hPa SW 2.9mph /  4.7km/h 10mph /  16.1km/h 80% 0in /  0.0mm 323 W/m2
11:19 57 °F /  13.9 °C 50.9 °F /  10.5 °C 29.6in /  1001.7hPa East 4mph /  6.4km/h 12mph /  19.3km/h 80% 0in /  0.0mm 940 W/m2
11:24 57.6 °F /  14.2 °C 50.7 °F /  10.4 °C 29.6in /  1001.7hPa SSE 2mph /  3.2km/h 8mph /  12.9km/h 78% 0in /  0.0mm 302 W/m2
11:29 57.6 °F /  14.2 °C 50.4 °F /  10.2 °C 29.6in /  1001.7hPa NW 2.9mph /  4.7km/h 8mph /  12.9km/h 77% 0in /  0.0mm 320 W/m2
11:34 57.7 °F /  14.3 °C 50.5 °F /  10.3 °C 29.6in /  1001.7hPa East 2.9mph /  4.7km/h 7mph /  11.3km/h 77% 0.01in /  0.2mm 329 W/m2
11:39 58.1 °F /  14.5 °C 50.9 °F /  10.5 °C 29.6in /  1001.7hPa NW 4mph /  6.4km/h 7mph /  11.3km/h 77% 0.01in /  0.2mm 610 W/m2
11:44 58.3 °F /  14.6 °C 50.4 °F /  10.2 °C 29.6in /  1001.7hPa West 6mph /  9.7km/h 10mph /  16.1km/h 75% 0.01in /  0.2mm 404 W/m2
11:49 58.6 °F /  14.8 °C 50 °F /  10 °C 29.6in /  1002.0hPa NNW 8.1mph /  13km/h 14mph /  22.5km/h 73% 0.01in /  0.2mm 478 W/m2
11:54 57.6 °F /  14.2 °C 50 °F /  10 °C 29.6in /  1002.4hPa West 12.1mph /  19.5km/h 16mph /  25.7km/h 76% 0.02in /  0.5mm 79 W/m2
11:59 54 °F /  12.2 °C 48.6 °F /  9.2 °C 29.6in /  1002.4hPa WNW 4.9mph /  7.9km/h 12mph /  19.3km/h 82% 0.04in /  1.0mm 204 W/m2
12:05 52.5 °F /  11.4 °C 48.4 °F /  9.1 °C 29.6in /  1002.4hPa SW 8.1mph /  13km/h 15mph /  24.1km/h 86% 0.04in /  1.0mm 169 W/m2
12:10 52 °F /  11.1 °C 48.2 °F /  9 °C 29.6in /  1002.7hPa NW 4mph /  6.4km/h 11mph /  17.7km/h 87% 0.04in /  1.0mm 260 W/m2
12:15 51.8 °F /  11 °C 48.4 °F /  9.1 °C 29.6in /  1002.7hPa WSW 4mph /  6.4km/h 10mph /  16.1km/h 88% 0.04in /  1.0mm 301 W/m2
12:20 52 °F /  11.1 °C 48.9 °F /  9.4 °C 29.6in /  1002.4hPa WNW 4mph /  6.4km/h 7mph /  11.3km/h 89% 0.04in /  1.0mm 418 W/m2
12:25 52.3 °F /  11.3 °C 49.5 °F /  9.7 °C 29.6in /  1002.4hPa NNW 6mph /  9.7km/h 7mph /  11.3km/h 90% 0.04in /  1.0mm 512 W/m2
12:30 53.2 °F /  11.8 °C 50.4 °F /  10.2 °C 29.6in /  1002.4hPa WNW 6.9mph /  11.1km/h 9mph /  14.5km/h 90% 0.04in /  1.0mm 884 W/m2
12:35 54.1 °F /  12.3 °C 50.4 °F /  10.2 °C 29.6in /  1002.4hPa WNW 4.9mph /  7.9km/h 6mph /  9.7km/h 87% 0.03in /  0.8mm 747 W/m2
12:40 54.9 °F /  12.7 °C 50.4 °F /  10.2 °C 29.6in /  1002.4hPa SW 2mph /  3.2km/h 13mph /  20.9km/h 85% 0.03in /  0.8mm 1093 W/m2
12:45 55.6 °F /  13.1 °C 51.1 °F /  10.6 °C 29.6in /  1002.4hPa West 6.9mph /  11.1km/h 10mph /  16.1km/h 85% 0.03in /  0.8mm 976 W/m2
12:50 56.3 °F /  13.5 °C 50.9 °F /  10.5 °C 29.6in /  1002.4hPa WNW 8.9mph /  14.3km/h 11mph /  17.7km/h 82% 0.03in /  0.8mm 881 W/m2
12:55 56.8 °F /  13.8 °C 51.8 °F /  11 °C 29.6in /  1002.7hPa West 11mph /  17.7km/h 14mph /  22.5km/h 83% 0.02in /  0.5mm 905 W/m2
13:00 57.4 °F /  14.1 °C 50.9 °F /  10.5 °C 29.6in /  1002.7hPa SW 4mph /  6.4km/h 14mph /  22.5km/h 79% 0in /  0.0mm 946 W/m2
13:05 57.7 °F /  14.3 °C 51.6 °F /  10.9 °C 29.6in /  1002.7hPa West 6mph /  9.7km/h 9mph /  14.5km/h 80% 0in /  0.0mm 1048 W/m2
13:10 58.3 °F /  14.6 °C 51.4 °F /  10.8 °C 29.6in /  1002.7hPa SSE 4.9mph /  7.9km/h 6mph /  9.7km/h 78% 0in /  0.0mm 1000 W/m2
13:15 58.8 °F /  14.9 °C 52 °F /  11.1 °C 29.6in /  1002.7hPa SSW 2mph /  3.2km/h 12mph /  19.3km/h 78% 0in /  0.0mm 1053 W/m2
13:20 58.6 °F /  14.8 °C 50.7 °F /  10.4 °C 29.6in /  1002.7hPa NNW 2mph /  3.2km/h 5mph /  8km/h 75% 0in /  0.0mm 202 W/m2
13:25 58.5 °F /  14.7 °C 50.5 °F /  10.3 °C 29.6in /  1002.7hPa West 4mph /  6.4km/h 9mph /  14.5km/h 75% 0in /  0.0mm 251 W/m2
13:30 57.9 °F /  14.4 °C 50 °F /  10 °C 29.6in /  1002.7hPa SW 6mph /  9.7km/h 9mph /  14.5km/h 75% 0in /  0.0mm 195 W/m2
13:35 58.6 °F /  14.8 °C 51.1 °F /  10.6 °C 29.6in /  1002.7hPa WNW 2.9mph /  4.7km/h 8mph /  12.9km/h 76% 0in /  0.0mm 974 W/m2
13:40 59.5 °F /  15.3 °C 50.9 °F /  10.5 °C 29.6in /  1002.7hPa West 2.9mph /  4.7km/h 8mph /  12.9km/h 73% 0in /  0.0mm 1056 W/m2
13:45 59.4 °F /  15.2 °C 49.1 °F /  9.5 °C 29.6in /  1003.0hPa West 10.1mph /  16.3km/h 19mph /  30.6km/h 69% 0in /  0.0mm 220 W/m2
13:50 57 °F /  13.9 °C 47.7 °F /  8.7 °C 29.6in /  1003.0hPa NW 6.9mph /  11.1km/h 12mph /  19.3km/h 71% 0in /  0.0mm 230 W/m2
13:55 55.9 °F /  13.3 °C 47.5 °F /  8.6 °C 29.6in /  1003.0hPa WNW 8.1mph /  13km/h 10mph /  16.1km/h 73% 0in /  0.0mm 200 W/m2
14:00 55.4 °F /  13 °C 47.3 °F /  8.5 °C 29.6in /  1003.0hPa West 2.9mph /  4.7km/h 7mph /  11.3km/h 74% 0in /  0.0mm 220 W/m2
14:05 55.8 °F /  13.2 °C 48.4 °F /  9.1 °C 29.6in /  1003.0hPa West 6.9mph /  11.1km/h 9mph /  14.5km/h 76% 0in /  0.0mm 1014 W/m2
14:10 56.7 °F /  13.7 °C 48.4 °F /  9.1 °C 29.6in /  1003.0hPa WSW 6.9mph /  11.1km/h 10mph /  16.1km/h 74% 0in /  0.0mm 350 W/m2
14:15 57.7 °F /  14.3 °C 49.1 °F /  9.5 °C 29.6in /  1003.0hPa West 8.1mph /  13km/h 10mph /  16.1km/h 73% 0in /  0.0mm 916 W/m2
14:21 58.6 °F /  14.8 °C 49.6 °F /  9.8 °C 29.6in /  1003.0hPa West 6.9mph /  11.1km/h 8mph /  12.9km/h 72% 0in /  0.0mm 916 W/m2
14:26 59.2 °F /  15.1 °C 49.5 °F /  9.7 °C 29.6in /  1003.0hPa West 4mph /  6.4km/h 10mph /  16.1km/h 70% 0in /  0.0mm 923 W/m2
14:31 59.5 °F /  15.3 °C 49.3 °F /  9.6 °C 29.6in /  1003.0hPa WSW 8.1mph /  13km/h 11mph /  17.7km/h 69% 0in /  0.0mm 1002 W/m2
14:36 59.2 °F /  15.1 °C 48.6 °F /  9.2 °C 29.6in /  1003.0hPa West 8.1mph /  13km/h 12mph /  19.3km/h 68% 0in /  0.0mm 1002 W/m2
14:41 58.8 °F /  14.9 °C 48.2 °F /  9 °C 29.6in /  1003.4hPa WNW 6.9mph /  11.1km/h 9mph /  14.5km/h 68% 0in /  0.0mm 292 W/m2
14:46 58.6 °F /  14.8 °C 47.3 °F /  8.5 °C 29.6in /  1003.4hPa North 10.1mph /  16.3km/h 15mph /  24.1km/h 66% 0in /  0.0mm 343 W/m2
14:51 58.8 °F /  14.9 °C 47.8 °F /  8.8 °C 29.6in /  1003.4hPa SSW 2.9mph /  4.7km/h 9mph /  14.5km/h 67% 0in /  0.0mm 911 W/m2
Juneau County Weather
Compliments of Weather Underground - 2 mb